createdAt,value
2019-04-16T00:00:13.159Z,304.17
2019-04-16T00:01:13.924Z,303.99
2019-04-16T00:02:13.127Z,304.33
2019-04-16T00:03:13.178Z,304.59
2019-04-16T00:04:13.104Z,304.62
2019-04-16T00:05:13.246Z,304.71
2019-04-16T00:06:13.126Z,304.88
2019-04-16T00:07:13.160Z,304.35
2019-04-16T00:08:27.483Z,304.47
2019-04-16T00:09:14.130Z,304.85
2019-04-16T00:10:13.939Z,304.60
2019-04-16T00:11:13.108Z,304.37
2019-04-16T00:12:14.141Z,304.47
2019-04-16T00:13:13.043Z,304.60
2019-04-16T00:14:13.092Z,304.07
2019-04-16T00:15:13.946Z,304.52
2019-04-16T00:16:13.698Z,304.05
2019-04-16T00:17:13.179Z,304.66
2019-04-16T00:18:13.007Z,304.09
2019-04-16T00:19:13.029Z,304.77
2019-04-16T00:20:13.472Z,304.30
2019-04-16T00:21:12.994Z,304.28
2019-04-16T00:22:12.952Z,304.62
2019-04-16T00:23:12.954Z,304.45
2019-04-16T00:24:12.994Z,305.13
2019-04-16T00:25:12.969Z,304.49
2019-04-16T00:26:13.577Z,304.35
2019-04-16T00:27:12.869Z,304.99
2019-04-16T00:28:12.872Z,304.52
2019-04-16T00:29:12.903Z,304.04
2019-04-16T00:30:12.895Z,305.01
2019-04-16T00:31:12.974Z,305.07
2019-04-16T00:32:12.860Z,304.57
2019-04-16T00:33:12.992Z,304.79
2019-04-16T00:34:14.271Z,304.48
2019-04-16T00:35:15.403Z,304.43
2019-04-16T00:36:15.317Z,304.02
2019-04-16T00:37:13.818Z,304.58
2019-04-16T00:38:12.748Z,304.76
2019-04-16T00:39:12.770Z,304.27
2019-04-16T00:40:12.746Z,304.28
2019-04-16T00:41:12.771Z,304.18
2019-04-16T00:42:12.768Z,304.25
2019-04-16T00:43:12.734Z,304.37
2019-04-16T00:44:13.462Z,304.95
2019-04-16T00:45:12.747Z,305.15
2019-04-16T00:46:12.696Z,303.85
2019-04-16T00:47:12.772Z,304.60
2019-04-16T00:48:12.673Z,304.39
2019-04-16T00:49:12.640Z,304.74
2019-04-16T00:50:12.743Z,304.97
2019-04-16T00:51:12.682Z,304.99
2019-04-16T00:52:12.608Z,304.10
2019-04-16T00:53:12.660Z,304.27
2019-04-16T00:54:12.664Z,304.55
2019-04-16T00:55:14.537Z,304.92
2019-04-16T00:56:13.470Z,304.80
2019-04-16T00:57:12.670Z,304.42
2019-04-16T00:58:12.649Z,304.22
2019-04-16T00:59:12.580Z,304.52
2019-04-16T01:00:12.550Z,304.17
2019-04-16T01:01:12.595Z,304.51
2019-04-16T01:02:12.675Z,304.70
2019-04-16T01:03:13.093Z,304.74
2019-04-16T01:04:12.576Z,305.07
2019-04-16T01:05:12.515Z,303.64
2019-04-16T01:06:12.536Z,305.05
2019-04-16T01:07:12.493Z,304.35
2019-04-16T01:08:12.533Z,304.19
2019-04-16T01:09:12.551Z,304.75
2019-04-16T01:10:13.037Z,305.27
2019-04-16T01:11:12.503Z,304.54
2019-04-16T01:12:12.942Z,304.20
2019-04-16T01:13:12.580Z,304.79
2019-04-16T01:14:12.441Z,304.58
2019-04-16T01:15:12.460Z,304.42
2019-04-16T01:16:12.389Z,305.05
2019-04-16T01:17:12.951Z,305.19
2019-04-16T01:18:12.481Z,305.18
2019-04-16T01:19:12.420Z,304.97
2019-04-16T01:20:13.026Z,304.41
2019-04-16T01:21:14.272Z,305.10
2019-04-16T01:22:15.741Z,305.21
2019-04-16T01:23:12.375Z,304.50
2019-04-16T01:24:12.313Z,304.84
2019-04-16T01:25:12.294Z,304.97
2019-04-16T01:26:12.366Z,305.20
2019-04-16T01:27:12.262Z,304.05
2019-04-16T01:28:12.308Z,304.86
2019-04-16T01:29:12.238Z,304.81
2019-04-16T01:30:12.246Z,303.85
2019-04-16T01:31:12.263Z,304.93
2019-04-16T01:32:12.303Z,305.44
2019-04-16T01:33:14.774Z,304.75
2019-04-16T01:34:12.220Z,304.48
2019-04-16T01:35:12.174Z,304.52
2019-04-16T01:36:12.203Z,304.80
2019-04-16T01:37:12.240Z,304.64
2019-04-16T01:38:12.232Z,304.81
2019-04-16T01:39:17.991Z,304.67
2019-04-16T01:40:18.314Z,303.70
2019-04-16T01:42:24.161Z,302.52
2019-04-16T01:43:25.784Z,304.13
2019-04-16T01:44:23.240Z,304.86
2019-04-16T01:45:23.228Z,304.71
2019-04-16T01:46:23.247Z,304.41
2019-04-16T01:47:23.210Z,304.63
2019-04-16T01:48:23.207Z,304.54
2019-04-16T01:49:23.218Z,304.50
2019-04-16T01:50:23.163Z,304.27
2019-04-16T01:51:23.184Z,304.60
2019-04-16T01:52:23.158Z,304.20
2019-04-16T01:53:23.134Z,304.67
2019-04-16T01:54:23.487Z,304.77
2019-04-16T01:55:25.620Z,304.14
2019-04-16T01:56:27.956Z,304.92
2019-04-16T01:57:25.006Z,304.46
2019-04-16T01:58:23.093Z,304.49
2019-04-16T01:59:24.021Z,304.95
2019-04-16T02:00:23.090Z,304.51
2019-04-16T02:01:24.006Z,304.34
2019-04-16T02:02:23.073Z,304.75
2019-04-16T02:03:23.051Z,304.65
2019-04-16T02:04:23.031Z,304.63
2019-04-16T02:05:23.298Z,304.17
2019-04-16T02:06:25.597Z,304.78
2019-04-16T02:07:27.696Z,304.43
2019-04-16T02:08:23.040Z,304.33
2019-04-16T02:09:23.173Z,304.82
2019-04-16T02:10:23.019Z,305.01
2019-04-16T02:11:22.971Z,303.75
2019-04-16T02:12:23.063Z,304.00
2019-04-16T02:13:22.986Z,304.29
2019-04-16T02:14:22.940Z,304.71
2019-04-16T02:15:23.006Z,304.82
2019-04-16T02:16:25.260Z,304.95
2019-04-16T02:17:26.762Z,304.87
2019-04-16T02:18:22.901Z,304.44
2019-04-16T02:19:22.875Z,304.87
2019-04-16T02:20:23.508Z,304.92
2019-04-16T02:21:22.935Z,304.35
2019-04-16T02:22:22.923Z,305.48
2019-04-16T02:23:22.848Z,305.15
2019-04-16T02:24:22.903Z,304.49
2019-04-16T02:25:22.808Z,304.56
2019-04-16T02:26:23.505Z,305.05
2019-04-16T02:27:23.487Z,304.50
2019-04-16T02:28:28.031Z,304.24
2019-04-16T02:29:23.833Z,304.73
2019-04-16T02:30:23.511Z,304.61
2019-04-16T02:31:22.872Z,304.82
2019-04-16T02:32:22.773Z,304.76
2019-04-16T02:33:22.769Z,304.91
2019-04-16T02:34:22.829Z,304.32
2019-04-16T02:35:22.775Z,304.72
2019-04-16T02:36:22.876Z,304.89
2019-04-16T02:37:22.894Z,304.73
2019-04-16T02:38:22.749Z,304.67
2019-04-16T02:39:46.258Z,304.80
2019-04-16T02:40:23.682Z,305.01
2019-04-16T02:41:24.503Z,304.92
2019-04-16T02:42:22.708Z,304.84
2019-04-16T02:43:22.637Z,304.26
2019-04-16T02:44:22.743Z,304.93
2019-04-16T02:45:24.362Z,304.51
2019-04-16T02:46:22.651Z,304.63
2019-04-16T02:47:22.792Z,304.77
2019-04-16T02:48:22.597Z,304.79
2019-04-16T02:49:24.433Z,305.00
2019-04-16T02:50:22.563Z,304.73
2019-04-16T02:51:22.687Z,304.74
2019-04-16T02:52:22.590Z,304.86
2019-04-16T02:53:24.537Z,304.89
2019-04-16T02:54:22.542Z,305.03
2019-04-16T02:55:22.624Z,304.87
2019-04-16T02:56:22.506Z,304.86
2019-04-16T02:57:26.576Z,305.26
2019-04-16T02:58:23.553Z,305.45
2019-04-16T02:59:22.487Z,305.45
2019-04-16T03:00:22.509Z,305.56
2019-04-16T03:01:23.013Z,305.23
2019-04-16T03:02:23.187Z,305.16
2019-04-16T03:03:24.881Z,305.63
2019-04-16T03:04:26.758Z,305.05
2019-04-16T03:05:22.511Z,305.48
2019-04-16T03:06:22.394Z,304.58
2019-04-16T03:07:22.438Z,305.72
2019-04-16T03:08:22.658Z,305.31
2019-04-16T03:09:22.467Z,305.62
2019-04-16T03:10:23.017Z,304.83
2019-04-16T03:11:23.014Z,305.20
2019-04-16T03:12:22.440Z,305.40
2019-04-16T03:13:23.247Z,304.83
2019-04-16T03:14:22.394Z,305.58
2019-04-16T03:15:22.336Z,306.24
2019-04-16T03:16:22.378Z,304.91
2019-04-16T03:17:22.336Z,305.38
2019-04-16T03:18:22.367Z,305.45
2019-04-16T03:19:22.308Z,305.45
2019-04-16T03:20:23.910Z,305.56
2019-04-16T03:21:24.525Z,305.89
2019-04-16T03:22:23.203Z,306.78
2019-04-16T03:23:22.240Z,305.36
2019-04-16T03:24:22.241Z,305.00
2019-04-16T03:25:22.238Z,305.34
2019-04-16T03:26:22.194Z,305.79
2019-04-16T03:27:22.995Z,305.42
2019-04-16T03:28:23.569Z,305.28
2019-04-16T03:29:22.249Z,305.55
2019-04-16T03:30:22.421Z,305.37
2019-04-16T03:31:23.484Z,305.36
2019-04-16T03:32:22.097Z,305.59
2019-04-16T03:33:22.117Z,305.48
2019-04-16T03:34:22.701Z,305.75
2019-04-16T03:35:25.326Z,305.39
2019-04-16T03:36:22.225Z,305.87
2019-04-16T03:37:22.113Z,305.98
2019-04-16T03:38:22.073Z,305.67
2019-04-16T03:39:22.124Z,305.96
2019-04-16T03:40:25.463Z,305.67
2019-04-16T03:41:25.057Z,306.10
2019-04-16T03:42:24.521Z,306.45
2019-04-16T03:43:23.103Z,305.83
2019-04-16T03:44:22.034Z,306.14
2019-04-16T03:45:22.019Z,305.85
2019-04-16T03:46:22.044Z,306.20
2019-04-16T03:47:22.031Z,305.97
2019-04-16T03:48:23.486Z,306.22
2019-04-16T03:49:24.584Z,305.54
2019-04-16T03:50:22.932Z,306.54
2019-04-16T03:51:21.929Z,306.00
2019-04-16T03:52:21.966Z,306.02
2019-04-16T03:53:21.878Z,305.99
2019-04-16T03:54:22.624Z,306.27
2019-04-16T03:55:25.040Z,306.31
2019-04-16T03:56:21.878Z,305.95
2019-04-16T03:57:21.914Z,306.13
2019-04-16T03:58:21.834Z,306.23
2019-04-16T03:59:21.838Z,306.08
2019-04-16T04:00:21.818Z,306.27
2019-04-16T04:01:21.907Z,306.06
2019-04-16T04:02:23.012Z,306.13
2019-04-16T04:03:25.881Z,305.93
2019-04-16T04:04:21.835Z,306.00
2019-04-16T04:05:21.784Z,306.28
2019-04-16T04:06:21.786Z,305.67
2019-04-16T04:07:21.774Z,306.43
2019-04-16T04:08:21.798Z,305.89
2019-04-16T04:09:22.320Z,305.60
2019-04-16T04:10:30.451Z,306.79
2019-04-16T04:11:22.701Z,306.41
2019-04-16T04:12:21.829Z,306.75
2019-04-16T04:13:21.791Z,306.43
2019-04-16T04:14:23.470Z,306.26
2019-04-16T04:15:25.827Z,306.59
2019-04-16T04:16:22.681Z,306.14
2019-04-16T04:17:21.680Z,306.43
2019-04-16T04:18:21.679Z,306.54
2019-04-16T04:19:21.659Z,306.70
2019-04-16T04:20:21.654Z,306.77
2019-04-16T04:21:22.658Z,306.25
2019-04-16T04:22:22.761Z,306.55
2019-04-16T04:23:21.630Z,306.56
2019-04-16T04:24:21.623Z,306.76
2019-04-16T04:25:21.586Z,307.00
2019-04-16T04:26:21.569Z,306.68
2019-04-16T04:27:21.690Z,306.68
2019-04-16T04:28:21.554Z,306.70
2019-04-16T04:29:24.767Z,307.72
2019-04-16T04:30:21.516Z,307.06
2019-04-16T04:31:21.565Z,307.25
2019-04-16T04:32:21.538Z,307.60
2019-04-16T04:33:21.514Z,307.41
2019-04-16T04:34:21.494Z,307.66
2019-04-16T04:35:22.322Z,308.01
2019-04-16T04:36:22.968Z,307.48
2019-04-16T04:37:22.452Z,307.74
2019-04-16T04:38:21.465Z,307.32
2019-04-16T04:39:21.451Z,307.62
2019-04-16T04:40:21.462Z,307.44
2019-04-16T04:41:23.025Z,307.44
2019-04-16T04:42:21.575Z,307.33
2019-04-16T04:43:21.416Z,307.30
2019-04-16T04:44:21.503Z,307.69
2019-04-16T04:45:22.171Z,307.17
2019-04-16T04:46:21.409Z,307.66
2019-04-16T04:47:21.351Z,307.41
2019-04-16T04:48:24.065Z,308.10
2019-04-16T04:49:21.358Z,308.05
2019-04-16T04:50:21.354Z,308.23
2019-04-16T04:51:21.341Z,307.73
2019-04-16T04:52:21.326Z,307.73
2019-04-16T04:53:21.285Z,308.27
2019-04-16T04:54:22.554Z,308.27
2019-04-16T04:55:25.630Z,307.79
2019-04-16T04:56:21.401Z,308.39
2019-04-16T04:57:21.404Z,307.92
2019-04-16T04:58:21.293Z,307.87
2019-04-16T04:59:21.324Z,307.60
2019-04-16T05:00:22.031Z,308.56
2019-04-16T05:01:21.306Z,308.22
2019-04-16T05:02:21.344Z,307.77
2019-04-16T05:03:21.357Z,308.19
2019-04-16T05:04:21.454Z,308.39
2019-04-16T05:05:24.727Z,308.46
2019-04-16T05:06:21.164Z,308.79
2019-04-16T05:07:21.256Z,308.29
2019-04-16T05:08:21.199Z,308.38
2019-04-16T05:09:21.144Z,308.16
2019-04-16T05:10:21.200Z,308.20
2019-04-16T05:11:21.148Z,308.32
2019-04-16T05:12:22.158Z,308.09
2019-04-16T05:13:23.906Z,308.14
2019-04-16T05:14:21.097Z,308.41
2019-04-16T05:15:21.098Z,308.48
2019-04-16T05:16:21.081Z,307.82
2019-04-16T05:17:21.085Z,309.28
2019-04-16T05:18:21.118Z,308.24
2019-04-16T05:19:22.543Z,307.72
2019-04-16T05:20:21.029Z,307.10
2019-04-16T05:21:21.225Z,308.20
2019-04-16T05:22:22.046Z,307.12
2019-04-16T05:23:24.901Z,307.39
2019-04-16T05:24:20.973Z,307.26
2019-04-16T05:25:21.533Z,307.02
2019-04-16T05:26:21.025Z,307.61
2019-04-16T05:27:21.037Z,307.03
2019-04-16T05:28:20.962Z,306.71
2019-04-16T05:29:20.989Z,307.78
2019-04-16T05:30:21.887Z,306.77
2019-04-16T05:31:24.310Z,307.21
2019-04-16T05:32:20.957Z,306.56
2019-04-16T05:33:22.535Z,307.68
2019-04-16T05:34:21.042Z,308.13
2019-04-16T05:35:21.079Z,307.42
2019-04-16T05:36:21.777Z,307.62
2019-04-16T05:37:21.535Z,307.28
2019-04-16T05:38:23.564Z,307.35
2019-04-16T05:39:20.796Z,306.93
2019-04-16T05:40:20.870Z,307.69
2019-04-16T05:41:22.773Z,307.53
2019-04-16T05:42:22.394Z,307.36
2019-04-16T05:43:22.378Z,307.29
2019-04-16T05:44:20.764Z,307.46
2019-04-16T05:45:21.560Z,307.35
2019-04-16T05:46:20.726Z,307.28
2019-04-16T05:47:22.591Z,307.35
2019-04-16T05:48:21.627Z,307.45
2019-04-16T05:49:24.602Z,307.19
2019-04-16T05:50:21.696Z,307.72
2019-04-16T05:51:20.698Z,307.65
2019-04-16T05:52:20.836Z,307.28
2019-04-16T05:53:20.689Z,308.15
2019-04-16T05:54:22.134Z,307.71
2019-04-16T05:55:20.663Z,307.72
2019-04-16T05:56:24.055Z,308.04
2019-04-16T05:57:25.676Z,307.89
2019-04-16T05:58:21.678Z,308.08
2019-04-16T05:59:20.617Z,307.71
2019-04-16T06:00:20.620Z,308.32
2019-04-16T06:01:20.576Z,307.90
2019-04-16T06:02:20.597Z,308.15
2019-04-16T06:03:22.342Z,308.40
2019-04-16T06:04:24.263Z,307.42
2019-04-16T06:05:20.675Z,308.11
2019-04-16T06:06:20.571Z,307.30
2019-04-16T06:07:20.497Z,307.03
2019-04-16T06:08:20.495Z,307.75
2019-04-16T06:09:20.491Z,307.72
2019-04-16T06:10:21.035Z,307.68
2019-04-16T06:11:28.722Z,307.55
2019-04-16T06:12:21.491Z,307.40
2019-04-16T06:13:20.478Z,307.06
2019-04-16T06:14:20.435Z,307.28
2019-04-16T06:15:22.325Z,307.40
2019-04-16T06:16:24.327Z,307.51
2019-04-16T06:17:21.502Z,307.07
2019-04-16T06:18:20.396Z,306.79
2019-04-16T06:19:20.436Z,307.30
2019-04-16T06:20:21.725Z,307.24
2019-04-16T06:21:25.026Z,307.75
2019-04-16T06:22:21.362Z,306.79
2019-04-16T06:23:20.583Z,306.58
2019-04-16T06:24:20.723Z,306.99
2019-04-16T06:25:20.419Z,307.41
2019-04-16T06:26:20.344Z,307.09
2019-04-16T06:27:20.336Z,307.45
2019-04-16T06:28:20.373Z,307.04
2019-04-16T06:29:20.302Z,306.06
2019-04-16T06:30:20.282Z,306.74
2019-04-16T06:31:20.448Z,307.30
2019-04-16T06:32:21.195Z,307.64
2019-04-16T06:33:20.249Z,307.12
2019-04-16T06:34:23.453Z,307.51
2019-04-16T06:35:21.046Z,307.47
2019-04-16T06:36:20.453Z,306.94
2019-04-16T06:37:21.591Z,306.77
2019-04-16T06:38:21.214Z,307.19
2019-04-16T06:39:20.177Z,307.78
2019-04-16T06:40:20.201Z,307.25
2019-04-16T06:41:20.185Z,307.84
2019-04-16T06:42:23.085Z,307.10
2019-04-16T06:43:25.318Z,307.31
2019-04-16T06:44:22.554Z,307.77
2019-04-16T06:45:20.327Z,306.76
2019-04-16T06:46:20.177Z,306.86
2019-04-16T06:47:20.150Z,306.68
2019-04-16T06:48:20.308Z,307.08
2019-04-16T06:49:20.325Z,307.01
2019-04-16T06:50:31.293Z,307.45
2019-04-16T06:51:21.116Z,306.58
2019-04-16T06:52:20.933Z,307.02
2019-04-16T06:53:23.537Z,306.91
2019-04-16T06:54:20.085Z,306.95
2019-04-16T06:55:19.989Z,306.85
2019-04-16T06:56:20.731Z,306.81
2019-04-16T06:57:20.349Z,307.10
2019-04-16T06:58:20.009Z,307.58
2019-04-16T06:59:20.007Z,307.13
2019-04-16T07:00:20.262Z,306.55
2019-04-16T07:01:22.287Z,306.55
2019-04-16T07:02:19.992Z,307.43
2019-04-16T07:03:19.956Z,306.42
2019-04-16T07:04:20.550Z,306.87
2019-04-16T07:05:20.116Z,306.17
2019-04-16T07:06:20.545Z,306.99
2019-04-16T07:07:21.855Z,307.12
2019-04-16T07:08:19.993Z,306.21
2019-04-16T07:09:23.416Z,305.89
2019-04-16T07:10:20.910Z,306.22
2019-04-16T07:11:20.632Z,305.96
2019-04-16T07:12:21.007Z,306.64
2019-04-16T07:13:19.885Z,306.12
2019-04-16T07:14:19.821Z,306.36
2019-04-16T07:15:24.407Z,305.79
2019-04-16T07:16:20.809Z,306.47
2019-04-16T07:17:19.806Z,307.37
2019-04-16T07:18:21.127Z,306.92
2019-04-16T07:19:19.949Z,305.99
2019-04-16T07:20:19.725Z,306.90
2019-04-16T07:21:19.760Z,305.84
2019-04-16T07:22:21.277Z,306.09
2019-04-16T07:23:24.276Z,305.52
2019-04-16T07:24:23.112Z,305.45
2019-04-16T07:25:20.003Z,306.59
2019-04-16T07:26:19.676Z,305.65
2019-04-16T07:27:21.050Z,305.66
2019-04-16T07:28:24.649Z,306.13
2019-04-16T07:29:20.770Z,305.83
2019-04-16T07:30:21.198Z,306.62
2019-04-16T07:31:32.974Z,305.83
2019-04-16T07:32:20.744Z,305.05
2019-04-16T07:33:19.624Z,304.70
2019-04-16T07:34:19.594Z,305.52
2019-04-16T07:35:19.601Z,304.77
2019-04-16T07:36:20.645Z,305.32
2019-04-16T07:37:19.561Z,305.01
2019-04-16T07:38:19.662Z,305.52
2019-04-16T07:39:29.389Z,304.80
2019-04-16T07:40:20.659Z,305.63
2019-04-16T07:41:19.539Z,305.32
2019-04-16T07:42:22.246Z,305.54
2019-04-16T07:43:19.596Z,304.90
2019-04-16T07:44:20.312Z,304.89
2019-04-16T07:45:20.421Z,304.36
2019-04-16T07:46:19.494Z,304.71
2019-04-16T07:47:20.174Z,304.23
2019-04-16T07:48:22.564Z,305.38
2019-04-16T07:49:19.602Z,304.62
2019-04-16T07:50:19.468Z,304.00
2019-04-16T07:51:36.912Z,304.51
2019-04-16T07:52:19.397Z,304.11
2019-04-16T07:53:19.419Z,304.82
2019-04-16T07:54:21.782Z,304.52
2019-04-16T07:55:23.710Z,304.55
2019-04-16T07:56:19.346Z,304.17
2019-04-16T07:57:19.349Z,304.17
2019-04-16T07:58:19.350Z,304.35
2019-04-16T07:59:20.074Z,304.78
2019-04-16T08:00:19.482Z,304.74
2019-04-16T08:01:19.527Z,305.11
2019-04-16T08:02:21.391Z,305.02
2019-04-16T08:03:19.298Z,304.58
2019-04-16T08:04:28.497Z,305.00
2019-04-16T08:05:20.299Z,304.51
2019-04-16T08:06:19.361Z,304.64
2019-04-16T08:07:21.248Z,305.39
2019-04-16T08:08:24.379Z,304.15
2019-04-16T08:09:20.226Z,304.49
2019-04-16T08:10:19.229Z,304.85
2019-04-16T08:11:19.207Z,305.38
2019-04-16T08:12:30.115Z,304.34
2019-04-16T08:13:20.189Z,304.95
2019-04-16T08:14:19.165Z,304.34
2019-04-16T08:15:19.171Z,305.32
2019-04-16T08:16:19.233Z,304.12
2019-04-16T08:17:19.154Z,305.41
2019-04-16T08:18:19.241Z,304.31
2019-04-16T08:19:19.094Z,304.90
2019-04-16T08:20:21.037Z,303.14
2019-04-16T08:21:22.287Z,304.29
2019-04-16T08:22:19.090Z,303.96
2019-04-16T08:23:19.632Z,303.73
2019-04-16T08:24:24.345Z,305.70
2019-04-16T08:25:20.092Z,303.77
2019-04-16T08:26:19.045Z,303.07
2019-04-16T08:27:19.473Z,304.04
2019-04-16T08:28:19.367Z,304.10
2019-04-16T08:29:18.984Z,304.35
2019-04-16T08:30:18.999Z,303.55
2019-04-16T08:31:19.007Z,303.03
2019-04-16T08:32:18.964Z,303.24
2019-04-16T08:33:18.953Z,303.82
2019-04-16T08:34:18.958Z,303.10
2019-04-16T08:35:18.930Z,302.97
2019-04-16T08:36:18.962Z,304.04
2019-04-16T08:37:18.935Z,303.05
2019-04-16T08:38:18.923Z,302.84
2019-04-16T08:39:18.943Z,303.79
2019-04-16T08:40:18.890Z,303.25
2019-04-16T08:41:21.378Z,303.30
2019-04-16T08:42:24.237Z,302.62
2019-04-16T08:43:19.849Z,302.85
2019-04-16T08:44:18.844Z,302.51
2019-04-16T08:45:20.578Z,303.27
2019-04-16T08:46:18.831Z,303.20
2019-04-16T08:47:18.823Z,302.34
2019-04-16T08:48:18.986Z,303.26
2019-04-16T08:49:22.154Z,302.71
2019-04-16T08:50:18.773Z,303.19
2019-04-16T08:51:29.573Z,302.75
2019-04-16T08:52:19.767Z,303.09
2019-04-16T08:53:18.750Z,302.76
2019-04-16T08:54:20.727Z,302.63
2019-04-16T08:55:20.435Z,302.13
2019-04-16T08:56:18.761Z,302.63
2019-04-16T08:57:18.789Z,303.06
2019-04-16T08:58:18.726Z,302.62
2019-04-16T08:59:18.719Z,301.22
2019-04-16T09:00:18.679Z,301.76
2019-04-16T09:01:23.096Z,300.96
2019-04-16T09:02:18.686Z,300.76
2019-04-16T09:03:18.670Z,301.27
2019-04-16T09:04:18.645Z,300.82
2019-04-16T09:05:18.618Z,301.61
2019-04-16T09:06:18.725Z,302.83
2019-04-16T09:07:20.852Z,302.62
2019-04-16T09:08:21.843Z,301.59
2019-04-16T09:09:21.709Z,300.54
2019-04-16T09:10:23.268Z,301.54
2019-04-16T09:11:23.454Z,300.68
2019-04-16T09:12:19.559Z,302.27
2019-04-16T09:13:18.547Z,301.49
2019-04-16T09:14:20.997Z,302.56
2019-04-16T09:15:19.519Z,301.81
2019-04-16T09:16:18.500Z,301.12
2019-04-16T09:17:18.508Z,301.07
2019-04-16T09:18:18.538Z,299.59
2019-04-16T09:19:18.499Z,301.16
2019-04-16T09:20:18.449Z,301.06
2019-04-16T09:21:18.464Z,300.35
2019-04-16T09:22:18.431Z,301.34
2019-04-16T09:23:18.507Z,299.73
2019-04-16T09:24:18.415Z,300.41
2019-04-16T09:25:18.406Z,300.81
2019-04-16T09:26:22.571Z,299.62
2019-04-16T09:27:19.432Z,300.61
2019-04-16T09:28:25.766Z,300.34
2019-04-16T09:29:19.363Z,301.09
2019-04-16T09:30:18.370Z,299.99
2019-04-16T09:31:18.790Z,300.24
2019-04-16T09:32:18.351Z,301.41
2019-04-16T09:33:18.389Z,301.08
2019-04-16T09:34:18.328Z,299.10
2019-04-16T09:35:20.150Z,299.23
2019-04-16T09:36:18.292Z,301.36
2019-04-16T09:37:18.264Z,299.97
2019-04-16T09:38:18.256Z,301.66
2019-04-16T09:39:20.374Z,300.33
2019-04-16T09:40:18.610Z,301.42
2019-04-16T09:41:18.335Z,300.98
2019-04-16T09:42:18.225Z,301.24
2019-04-16T09:43:18.574Z,301.44
2019-04-16T09:44:18.213Z,300.49
2019-04-16T09:45:18.199Z,298.86
2019-04-16T09:46:26.622Z,299.00
2019-04-16T09:47:28.930Z,301.40
2019-04-16T09:49:29.294Z,298.72
2019-04-16T09:50:42.945Z,300.04
2019-04-16T09:52:40.407Z,296.38
2019-04-16T09:53:49.741Z,299.63
2019-04-16T09:55:58.170Z,295.23
2019-04-16T09:57:08.449Z,299.28
2019-04-16T09:58:07.502Z,301.19
2019-04-16T09:59:07.558Z,300.12
2019-04-16T09:59:58.967Z,300.42
2019-04-16T10:00:58.180Z,300.53
2019-04-16T10:01:58.964Z,300.95
2019-04-16T10:02:58.104Z,300.24
2019-04-16T10:03:58.118Z,300.69
2019-04-16T10:04:58.170Z,299.61
2019-04-16T10:05:58.095Z,301.88
2019-04-16T10:07:08.102Z,299.74
2019-04-16T10:07:58.339Z,301.00
2019-04-16T10:08:58.390Z,298.78
2019-04-16T10:09:58.415Z,301.46
2019-04-16T10:11:00.902Z,301.30
2019-04-16T10:11:58.067Z,301.03
2019-04-16T10:12:58.038Z,300.00
2019-04-16T10:13:58.000Z,301.25
2019-04-16T10:14:57.977Z,301.16
2019-04-16T10:15:59.005Z,300.69
2019-04-16T10:16:57.982Z,299.16
2019-04-16T10:18:07.240Z,302.15
2019-04-16T10:19:08.529Z,301.06
2019-04-16T10:19:58.145Z,300.73
2019-04-16T10:21:08.424Z,301.37
2019-04-16T10:21:57.969Z,299.59
2019-04-16T10:22:58.007Z,300.55
2019-04-16T10:23:57.911Z,301.46
2019-04-16T10:24:57.935Z,301.32
2019-04-16T10:25:57.956Z,301.12
2019-04-16T10:26:59.935Z,299.19
2019-04-16T10:27:57.846Z,301.01
2019-04-16T10:28:58.627Z,301.26
2019-04-16T10:30:08.392Z,299.32
2019-04-16T10:30:57.829Z,301.76
2019-04-16T10:31:57.878Z,301.37
2019-04-16T10:32:57.842Z,300.79
2019-04-16T10:33:57.770Z,300.38
2019-04-16T10:34:57.790Z,302.04
2019-04-16T10:36:10.367Z,301.13
2019-04-16T10:36:58.699Z,302.06
2019-04-16T10:37:57.797Z,300.72
2019-04-16T10:38:57.739Z,300.81
2019-04-16T10:39:57.745Z,300.40
2019-04-16T10:40:57.713Z,299.72
2019-04-16T10:41:57.749Z,301.93
2019-04-16T10:42:57.697Z,302.80
2019-04-16T10:43:57.725Z,301.19
2019-04-16T10:44:58.206Z,303.07
2019-04-16T10:45:57.702Z,301.70
2019-04-16T10:46:57.641Z,301.50
2019-04-16T10:47:57.635Z,300.45
2019-04-16T10:48:57.794Z,299.79
2019-04-16T10:49:57.649Z,301.63
2019-04-16T10:50:58.044Z,300.77
2019-04-16T10:51:57.668Z,300.12
2019-04-16T10:52:57.589Z,301.90
2019-04-16T10:53:57.575Z,302.10
2019-04-16T10:54:57.716Z,299.81
2019-04-16T10:55:57.544Z,299.87
2019-04-16T10:56:58.381Z,299.59
2019-04-16T10:57:57.536Z,299.89
2019-04-16T10:58:57.554Z,299.95
2019-04-16T10:59:57.577Z,300.64
2019-04-16T11:00:57.553Z,301.51
2019-04-16T11:01:57.586Z,302.07
2019-04-16T11:02:57.531Z,299.93
2019-04-16T11:03:57.463Z,302.13
2019-04-16T11:04:57.544Z,301.45
2019-04-16T11:05:57.850Z,300.57
2019-04-16T11:06:57.472Z,300.23
2019-04-16T11:07:57.451Z,300.46
2019-04-16T11:08:57.473Z,300.29
2019-04-16T11:09:57.496Z,300.73
2019-04-16T11:10:57.390Z,300.83
2019-04-16T11:11:57.387Z,300.81
2019-04-16T11:12:57.376Z,299.30
2019-04-16T11:14:00.106Z,299.58
2019-04-16T11:14:57.367Z,300.37
2019-04-16T11:15:57.386Z,299.86
2019-04-16T11:16:57.315Z,301.77
2019-04-16T11:17:57.352Z,300.07
2019-04-16T11:18:58.183Z,299.80
2019-04-16T11:19:59.922Z,302.67
2019-04-16T11:20:57.308Z,301.33
2019-04-16T11:21:59.905Z,301.28
2019-04-16T11:22:58.288Z,299.80
2019-04-16T11:23:57.272Z,301.91
2019-04-16T11:24:57.243Z,301.85
2019-04-16T11:25:57.240Z,301.85
2019-04-16T11:26:57.222Z,303.04
2019-04-16T11:27:57.235Z,301.31
2019-04-16T11:28:57.235Z,301.33
2019-04-16T11:29:57.204Z,300.73
2019-04-16T11:30:57.194Z,299.32
2019-04-16T11:31:57.174Z,301.44
2019-04-16T11:32:57.164Z,300.97
2019-04-16T11:33:57.166Z,300.11
2019-04-16T11:34:57.115Z,300.56
2019-04-16T11:35:57.129Z,301.22
2019-04-16T11:36:58.530Z,299.68
2019-04-16T11:37:57.129Z,301.12
2019-04-16T11:38:57.055Z,300.05
2019-04-16T11:39:57.057Z,298.97
2019-04-16T11:40:57.062Z,300.30
2019-04-16T11:41:57.088Z,300.02
2019-04-16T11:42:57.022Z,299.37
2019-04-16T11:43:57.122Z,300.75
2019-04-16T11:44:57.009Z,298.45
2019-04-16T11:45:57.050Z,302.11
2019-04-16T11:46:57.009Z,299.66
2019-04-16T11:47:56.971Z,300.58
2019-04-16T11:48:56.965Z,298.99
2019-04-16T11:49:56.963Z,301.37
2019-04-16T11:50:56.957Z,300.94
2019-04-16T11:51:56.959Z,300.12
2019-04-16T11:52:58.392Z,298.47
2019-04-16T11:53:56.945Z,301.61
2019-04-16T11:55:00.485Z,300.84
2019-04-16T11:55:56.888Z,301.51
2019-04-16T11:56:59.340Z,301.60
2019-04-16T11:57:56.886Z,300.63
2019-04-16T11:58:57.607Z,299.79
2019-04-16T12:00:06.493Z,299.73
2019-04-16T12:00:57.890Z,300.90
2019-04-16T12:01:56.872Z,299.30
2019-04-16T12:02:56.887Z,300.47
2019-04-16T12:03:56.812Z,300.64
2019-04-16T12:04:59.233Z,299.38
2019-04-16T12:05:57.308Z,300.37
2019-04-16T12:06:56.805Z,300.94
2019-04-16T12:07:56.835Z,299.55
2019-04-16T12:08:56.799Z,299.69
2019-04-16T12:09:56.796Z,300.02
2019-04-16T12:10:56.750Z,299.60
2019-04-16T12:11:56.736Z,301.17
2019-04-16T12:12:56.708Z,300.43
2019-04-16T12:13:56.738Z,299.86
2019-04-16T12:14:56.722Z,299.39
2019-04-16T12:15:56.677Z,300.26
2019-04-16T12:16:56.866Z,301.18
2019-04-16T12:17:56.703Z,302.84
2019-04-16T12:18:56.646Z,301.76
2019-04-16T12:19:56.624Z,303.46
2019-04-16T12:20:56.633Z,302.77
2019-04-16T12:21:56.652Z,304.81
2019-04-16T12:22:56.643Z,306.08
2019-04-16T12:23:57.237Z,303.23
2019-04-16T12:24:56.697Z,304.33
2019-04-16T12:25:56.582Z,302.97
2019-04-16T12:26:56.593Z,303.93
2019-04-16T12:27:57.221Z,305.08
2019-04-16T12:28:56.529Z,304.12
2019-04-16T12:29:56.551Z,304.56
2019-04-16T12:30:56.633Z,304.30
2019-04-16T12:31:56.503Z,302.04
2019-04-16T12:32:56.523Z,301.25